sensor_id;sensor_type;location;lat;lon;timestamp;P1;durP1;ratioP1;P2;durP2;ratioP2
59607;SDS011;45426;44.726;10.390;2023-11-19T00:01:34;5.90;;;2.80;;
59607;SDS011;45426;44.726;10.390;2023-11-19T00:03:59;7.38;;;3.03;;
59607;SDS011;45426;44.726;10.390;2023-11-19T00:06:25;8.27;;;3.40;;
59607;SDS011;45426;44.726;10.390;2023-11-19T00:08:50;7.70;;;2.90;;
59607;SDS011;45426;44.726;10.390;2023-11-19T00:11:16;6.68;;;2.90;;
59607;SDS011;45426;44.726;10.390;2023-11-19T00:13:42;7.65;;;3.40;;
59607;SDS011;45426;44.726;10.390;2023-11-19T00:16:07;9.95;;;3.97;;
59607;SDS011;45426;44.726;10.390;2023-11-19T00:18:35;9.68;;;3.55;;
59607;SDS011;45426;44.726;10.390;2023-11-19T00:21:01;6.95;;;3.03;;
59607;SDS011;45426;44.726;10.390;2023-11-19T00:23:27;5.78;;;3.10;;
59607;SDS011;45426;44.726;10.390;2023-11-19T00:25:53;7.13;;;3.00;;
59607;SDS011;45426;44.726;10.390;2023-11-19T00:28:18;8.15;;;3.03;;
59607;SDS011;45426;44.726;10.390;2023-11-19T00:30:44;17.40;;;3.58;;
59607;SDS011;45426;44.726;10.390;2023-11-19T00:33:09;10.73;;;3.85;;
59607;SDS011;45426;44.726;10.390;2023-11-19T00:35:35;7.60;;;3.08;;
59607;SDS011;45426;44.726;10.390;2023-11-19T00:38:00;6.13;;;3.10;;
59607;SDS011;45426;44.726;10.390;2023-11-19T00:40:26;5.38;;;3.00;;
59607;SDS011;45426;44.726;10.390;2023-11-19T00:42:52;7.20;;;3.40;;
59607;SDS011;45426;44.726;10.390;2023-11-19T00:45:17;6.78;;;3.17;;
59607;SDS011;45426;44.726;10.390;2023-11-19T00:47:43;8.63;;;3.78;;
59607;SDS011;45426;44.726;10.390;2023-11-19T00:50:08;8.80;;;3.33;;
59607;SDS011;45426;44.726;10.390;2023-11-19T00:52:34;6.53;;;3.15;;
59607;SDS011;45426;44.726;10.390;2023-11-19T00:55:01;6.90;;;3.30;;
59607;SDS011;45426;44.726;10.390;2023-11-19T00:57:26;7.85;;;3.10;;
59607;SDS011;45426;44.726;10.390;2023-11-19T00:59:52;7.75;;;3.22;;
59607;SDS011;45426;44.726;10.390;2023-11-19T01:02:17;7.63;;;3.35;;
59607;SDS011;45426;44.726;10.390;2023-11-19T01:04:42;9.15;;;3.20;;
59607;SDS011;45426;44.726;10.390;2023-11-19T01:07:09;7.72;;;3.08;;
59607;SDS011;45426;44.726;10.390;2023-11-19T01:09:37;8.38;;;3.13;;
59607;SDS011;45426;44.726;10.390;2023-11-19T01:12:03;8.60;;;3.08;;
59607;SDS011;45426;44.726;10.390;2023-11-19T01:14:29;6.90;;;3.10;;
59607;SDS011;45426;44.726;10.390;2023-11-19T01:16:55;8.10;;;3.10;;
59607;SDS011;45426;44.726;10.390;2023-11-19T01:19:23;7.72;;;3.08;;
59607;SDS011;45426;44.726;10.390;2023-11-19T01:21:49;7.30;;;2.80;;
59607;SDS011;45426;44.726;10.390;2023-11-19T01:24:18;5.45;;;2.80;;
59607;SDS011;45426;44.726;10.390;2023-11-19T01:26:44;5.90;;;2.70;;
59607;SDS011;45426;44.726;10.390;2023-11-19T01:29:13;6.88;;;2.97;;
59607;SDS011;45426;44.726;10.390;2023-11-19T01:31:42;6.82;;;2.65;;
59607;SDS011;45426;44.726;10.390;2023-11-19T01:34:08;6.32;;;2.70;;
59607;SDS011;45426;44.726;10.390;2023-11-19T01:36:34;3.97;;;2.40;;
59607;SDS011;45426;44.726;10.390;2023-11-19T01:38:59;6.57;;;2.65;;
59607;SDS011;45426;44.726;10.390;2023-11-19T01:41:25;5.03;;;2.40;;
59607;SDS011;45426;44.726;10.390;2023-11-19T01:43:50;6.43;;;2.60;;
59607;SDS011;45426;44.726;10.390;2023-11-19T01:46:16;5.10;;;2.60;;
59607;SDS011;45426;44.726;10.390;2023-11-19T01:48:44;6.10;;;2.50;;
59607;SDS011;45426;44.726;10.390;2023-11-19T01:51:12;8.18;;;2.75;;
59607;SDS011;45426;44.726;10.390;2023-11-19T01:53:38;7.38;;;2.92;;
59607;SDS011;45426;44.726;10.390;2023-11-19T01:56:05;5.88;;;2.50;;
59607;SDS011;45426;44.726;10.390;2023-11-19T01:58:34;5.75;;;2.50;;
59607;SDS011;45426;44.726;10.390;2023-11-19T02:01:05;4.57;;;2.58;;
59607;SDS011;45426;44.726;10.390;2023-11-19T02:03:32;4.57;;;2.80;;
59607;SDS011;45426;44.726;10.390;2023-11-19T02:05:58;7.32;;;2.42;;
59607;SDS011;45426;44.726;10.390;2023-11-19T02:08:25;6.93;;;2.50;;
59607;SDS011;45426;44.726;10.390;2023-11-19T02:10:51;6.35;;;2.63;;
59607;SDS011;45426;44.726;10.390;2023-11-19T02:13:17;5.53;;;2.70;;
59607;SDS011;45426;44.726;10.390;2023-11-19T02:15:45;5.25;;;2.53;;
59607;SDS011;45426;44.726;10.390;2023-11-19T02:18:17;6.63;;;2.42;;
59607;SDS011;45426;44.726;10.390;2023-11-19T02:20:44;5.57;;;2.60;;
59607;SDS011;45426;44.726;10.390;2023-11-19T02:23:09;6.55;;;2.70;;
59607;SDS011;45426;44.726;10.390;2023-11-19T02:25:34;5.03;;;2.42;;
59607;SDS011;45426;44.726;10.390;2023-11-19T02:28:01;7.93;;;2.55;;
59607;SDS011;45426;44.726;10.390;2023-11-19T02:30:28;5.70;;;2.38;;
59607;SDS011;45426;44.726;10.390;2023-11-19T02:32:57;7.28;;;2.35;;
59607;SDS011;45426;44.726;10.390;2023-11-19T02:35:30;4.63;;;2.30;;
59607;SDS011;45426;44.726;10.390;2023-11-19T02:37:57;7.03;;;2.20;;
59607;SDS011;45426;44.726;10.390;2023-11-19T02:40:24;7.55;;;2.17;;
59607;SDS011;45426;44.726;10.390;2023-11-19T02:42:50;3.20;;;1.95;;
59607;SDS011;45426;44.726;10.390;2023-11-19T02:45:15;5.32;;;2.20;;
59607;SDS011;45426;44.726;10.390;2023-11-19T02:47:41;6.82;;;1.92;;
59607;SDS011;45426;44.726;10.390;2023-11-19T02:50:08;6.18;;;2.35;;
59607;SDS011;45426;44.726;10.390;2023-11-19T02:52:43;5.70;;;2.00;;
59607;SDS011;45426;44.726;10.390;2023-11-19T02:55:10;4.68;;;2.28;;
59607;SDS011;45426;44.726;10.390;2023-11-19T02:57:40;4.18;;;2.20;;
59607;SDS011;45426;44.726;10.390;2023-11-19T03:00:12;6.25;;;2.17;;
59607;SDS011;45426;44.726;10.390;2023-11-19T03:02:42;6.57;;;1.90;;
59607;SDS011;45426;44.726;10.390;2023-11-19T03:05:15;4.88;;;1.88;;
59607;SDS011;45426;44.726;10.390;2023-11-19T03:07:42;5.88;;;2.00;;
59607;SDS011;45426;44.726;10.390;2023-11-19T03:10:08;4.13;;;1.88;;
59607;SDS011;45426;44.726;10.390;2023-11-19T03:12:40;4.65;;;1.90;;
59607;SDS011;45426;44.726;10.390;2023-11-19T03:15:06;6.22;;;2.05;;
59607;SDS011;45426;44.726;10.390;2023-11-19T03:17:32;5.00;;;2.10;;
59607;SDS011;45426;44.726;10.390;2023-11-19T03:19:59;4.00;;;1.77;;
59607;SDS011;45426;44.726;10.390;2023-11-19T03:22:26;6.88;;;2.15;;
59607;SDS011;45426;44.726;10.390;2023-11-19T03:24:51;4.82;;;1.80;;
59607;SDS011;45426;44.726;10.390;2023-11-19T03:27:17;4.18;;;1.90;;
59607;SDS011;45426;44.726;10.390;2023-11-19T03:29:42;6.03;;;1.88;;
59607;SDS011;45426;44.726;10.390;2023-11-19T03:32:08;5.53;;;2.08;;
59607;SDS011;45426;44.726;10.390;2023-11-19T03:34:34;6.65;;;2.30;;
59607;SDS011;45426;44.726;10.390;2023-11-19T03:36:59;6.32;;;1.98;;
59607;SDS011;45426;44.726;10.390;2023-11-19T03:39:24;2.83;;;1.80;;
59607;SDS011;45426;44.726;10.390;2023-11-19T03:41:50;6.13;;;1.83;;
59607;SDS011;45426;44.726;10.390;2023-11-19T03:44:16;5.55;;;2.00;;
59607;SDS011;45426;44.726;10.390;2023-11-19T03:46:41;4.07;;;1.77;;
59607;SDS011;45426;44.726;10.390;2023-11-19T03:49:07;3.70;;;1.70;;
59607;SDS011;45426;44.726;10.390;2023-11-19T03:51:32;4.22;;;1.80;;
59607;SDS011;45426;44.726;10.390;2023-11-19T03:53:59;4.13;;;1.70;;
59607;SDS011;45426;44.726;10.390;2023-11-19T03:56:25;5.65;;;1.58;;
59607;SDS011;45426;44.726;10.390;2023-11-19T03:58:52;4.82;;;1.95;;
59607;SDS011;45426;44.726;10.390;2023-11-19T04:01:17;2.75;;;1.63;;
59607;SDS011;45426;44.726;10.390;2023-11-19T04:03:43;6.10;;;1.70;;
59607;SDS011;45426;44.726;10.390;2023-11-19T04:06:09;4.85;;;1.80;;
59607;SDS011;45426;44.726;10.390;2023-11-19T04:08:34;4.40;;;1.98;;
59607;SDS011;45426;44.726;10.390;2023-11-19T04:11:01;6.70;;;1.92;;
59607;SDS011;45426;44.726;10.390;2023-11-19T04:13:29;5.30;;;1.90;;
59607;SDS011;45426;44.726;10.390;2023-11-19T04:15:54;3.85;;;1.90;;
59607;SDS011;45426;44.726;10.390;2023-11-19T04:18:20;5.10;;;2.10;;
59607;SDS011;45426;44.726;10.390;2023-11-19T04:20:45;4.70;;;1.63;;
59607;SDS011;45426;44.726;10.390;2023-11-19T04:23:11;3.63;;;1.70;;
59607;SDS011;45426;44.726;10.390;2023-11-19T04:25:36;5.03;;;1.90;;
59607;SDS011;45426;44.726;10.390;2023-11-19T04:28:02;4.07;;;2.00;;
59607;SDS011;45426;44.726;10.390;2023-11-19T04:30:28;4.47;;;1.88;;
59607;SDS011;45426;44.726;10.390;2023-11-19T04:32:53;3.58;;;1.80;;
59607;SDS011;45426;44.726;10.390;2023-11-19T04:35:19;4.22;;;1.90;;
59607;SDS011;45426;44.726;10.390;2023-11-19T04:37:44;3.22;;;1.75;;
59607;SDS011;45426;44.726;10.390;2023-11-19T04:40:10;3.83;;;1.88;;
59607;SDS011;45426;44.726;10.390;2023-11-19T04:42:37;7.50;;;2.03;;
59607;SDS011;45426;44.726;10.390;2023-11-19T04:45:05;4.07;;;1.67;;
59607;SDS011;45426;44.726;10.390;2023-11-19T04:47:32;2.78;;;1.55;;
59607;SDS011;45426;44.726;10.390;2023-11-19T04:49:58;3.70;;;1.90;;
59607;SDS011;45426;44.726;10.390;2023-11-19T04:52:24;4.68;;;1.60;;
59607;SDS011;45426;44.726;10.390;2023-11-19T04:54:49;3.47;;;1.75;;
59607;SDS011;45426;44.726;10.390;2023-11-19T04:57:15;3.17;;;1.80;;
59607;SDS011;45426;44.726;10.390;2023-11-19T04:59:40;3.63;;;1.60;;
59607;SDS011;45426;44.726;10.390;2023-11-19T05:02:06;4.93;;;1.77;;
59607;SDS011;45426;44.726;10.390;2023-11-19T05:04:31;3.13;;;1.60;;
59607;SDS011;45426;44.726;10.390;2023-11-19T05:06:57;5.85;;;1.85;;
59607;SDS011;45426;44.726;10.390;2023-11-19T05:09:22;4.30;;;1.92;;
59607;SDS011;45426;44.726;10.390;2023-11-19T05:11:48;5.00;;;2.00;;
59607;SDS011;45426;44.726;10.390;2023-11-19T05:14:13;2.95;;;1.60;;
59607;SDS011;45426;44.726;10.390;2023-11-19T05:16:39;3.55;;;1.70;;
59607;SDS011;45426;44.726;10.390;2023-11-19T05:19:05;3.88;;;1.63;;
59607;SDS011;45426;44.726;10.390;2023-11-19T05:21:30;4.10;;;1.77;;
59607;SDS011;45426;44.726;10.390;2023-11-19T05:23:56;3.15;;;1.63;;
59607;SDS011;45426;44.726;10.390;2023-11-19T05:26:22;4.28;;;1.65;;
59607;SDS011;45426;44.726;10.390;2023-11-19T05:28:49;3.42;;;1.70;;
59607;SDS011;45426;44.726;10.390;2023-11-19T05:31:15;3.28;;;1.60;;
59607;SDS011;45426;44.726;10.390;2023-11-19T05:33:41;3.20;;;1.67;;
59607;SDS011;45426;44.726;10.390;2023-11-19T05:36:07;2.90;;;1.40;;
59607;SDS011;45426;44.726;10.390;2023-11-19T05:38:33;2.65;;;1.48;;
59607;SDS011;45426;44.726;10.390;2023-11-19T05:40:59;4.45;;;1.70;;
59607;SDS011;45426;44.726;10.390;2023-11-19T05:43:25;6.50;;;1.80;;
59607;SDS011;45426;44.726;10.390;2023-11-19T05:45:50;4.53;;;1.48;;
59607;SDS011;45426;44.726;10.390;2023-11-19T05:48:16;2.72;;;1.42;;
59607;SDS011;45426;44.726;10.390;2023-11-19T05:50:42;4.82;;;1.95;;
59607;SDS011;45426;44.726;10.390;2023-11-19T05:53:07;3.95;;;1.92;;
59607;SDS011;45426;44.726;10.390;2023-11-19T05:55:35;7.55;;;1.83;;
59607;SDS011;45426;44.726;10.390;2023-11-19T05:58:09;3.30;;;1.60;;
59607;SDS011;45426;44.726;10.390;2023-11-19T06:00:37;2.67;;;1.48;;
59607;SDS011;45426;44.726;10.390;2023-11-19T06:03:02;3.38;;;1.67;;
59607;SDS011;45426;44.726;10.390;2023-11-19T06:05:29;4.18;;;1.85;;
59607;SDS011;45426;44.726;10.390;2023-11-19T06:07:54;3.28;;;1.58;;
59607;SDS011;45426;44.726;10.390;2023-11-19T06:10:20;3.13;;;1.67;;
59607;SDS011;45426;44.726;10.390;2023-11-19T06:12:45;6.43;;;1.73;;
59607;SDS011;45426;44.726;10.390;2023-11-19T06:15:11;7.13;;;2.10;;
59607;SDS011;45426;44.726;10.390;2023-11-19T06:17:36;3.72;;;1.80;;
59607;SDS011;45426;44.726;10.390;2023-11-19T06:20:03;4.82;;;1.67;;
59607;SDS011;45426;44.726;10.390;2023-11-19T06:22:29;2.72;;;1.70;;
59607;SDS011;45426;44.726;10.390;2023-11-19T06:24:55;3.63;;;1.60;;
59607;SDS011;45426;44.726;10.390;2023-11-19T06:27:21;4.68;;;1.73;;
59607;SDS011;45426;44.726;10.390;2023-11-19T06:29:47;2.22;;;1.48;;
59607;SDS011;45426;44.726;10.390;2023-11-19T06:32:13;5.95;;;1.70;;
59607;SDS011;45426;44.726;10.390;2023-11-19T06:34:38;4.50;;;1.73;;
59607;SDS011;45426;44.726;10.390;2023-11-19T06:37:04;4.72;;;1.67;;
59607;SDS011;45426;44.726;10.390;2023-11-19T06:39:29;3.88;;;1.80;;
59607;SDS011;45426;44.726;10.390;2023-11-19T06:41:55;4.25;;;1.73;;
59607;SDS011;45426;44.726;10.390;2023-11-19T06:44:20;4.50;;;1.88;;
59607;SDS011;45426;44.726;10.390;2023-11-19T06:46:46;4.07;;;1.73;;
59607;SDS011;45426;44.726;10.390;2023-11-19T06:49:13;2.63;;;1.48;;
59607;SDS011;45426;44.726;10.390;2023-11-19T06:51:42;4.13;;;1.77;;
59607;SDS011;45426;44.726;10.390;2023-11-19T06:54:08;3.03;;;1.80;;
59607;SDS011;45426;44.726;10.390;2023-11-19T06:56:34;4.75;;;1.80;;
59607;SDS011;45426;44.726;10.390;2023-11-19T06:58:59;3.28;;;1.60;;
59607;SDS011;45426;44.726;10.390;2023-11-19T07:01:25;3.35;;;1.55;;
59607;SDS011;45426;44.726;10.390;2023-11-19T07:03:50;6.20;;;1.88;;
59607;SDS011;45426;44.726;10.390;2023-11-19T07:06:16;4.38;;;1.60;;
59607;SDS011;45426;44.726;10.390;2023-11-19T07:08:41;3.80;;;1.70;;
59607;SDS011;45426;44.726;10.390;2023-11-19T07:11:10;3.97;;;1.48;;
59607;SDS011;45426;44.726;10.390;2023-11-19T07:13:36;2.65;;;1.58;;
59607;SDS011;45426;44.726;10.390;2023-11-19T07:16:02;1.63;;;1.30;;
59607;SDS011;45426;44.726;10.390;2023-11-19T07:18:28;2.50;;;1.52;;
59607;SDS011;45426;44.726;10.390;2023-11-19T07:20:54;3.40;;;1.48;;
59607;SDS011;45426;44.726;10.390;2023-11-19T07:23:20;3.38;;;1.35;;
59607;SDS011;45426;44.726;10.390;2023-11-19T07:25:46;2.42;;;1.30;;
59607;SDS011;45426;44.726;10.390;2023-11-19T07:28:15;2.97;;;1.65;;
59607;SDS011;45426;44.726;10.390;2023-11-19T07:30:41;5.50;;;2.80;;
59607;SDS011;45426;44.726;10.390;2023-11-19T07:33:07;6.28;;;3.50;;
59607;SDS011;45426;44.726;10.390;2023-11-19T07:35:33;5.57;;;3.03;;
59607;SDS011;45426;44.726;10.390;2023-11-19T07:37:59;3.60;;;2.38;;
59607;SDS011;45426;44.726;10.390;2023-11-19T07:40:24;5.78;;;2.53;;
59607;SDS011;45426;44.726;10.390;2023-11-19T07:42:50;3.97;;;2.10;;
59607;SDS011;45426;44.726;10.390;2023-11-19T07:45:16;6.07;;;2.20;;
59607;SDS011;45426;44.726;10.390;2023-11-19T07:47:42;3.05;;;2.00;;
59607;SDS011;45426;44.726;10.390;2023-11-19T07:50:10;3.85;;;1.95;;
59607;SDS011;45426;44.726;10.390;2023-11-19T07:52:36;4.63;;;1.90;;
59607;SDS011;45426;44.726;10.390;2023-11-19T07:55:02;6.70;;;2.25;;
59607;SDS011;45426;44.726;10.390;2023-11-19T07:57:28;5.65;;;2.83;;
59607;SDS011;45426;44.726;10.390;2023-11-19T07:59:56;5.25;;;2.10;;
59607;SDS011;45426;44.726;10.390;2023-11-19T08:02:26;7.20;;;2.67;;
59607;SDS011;45426;44.726;10.390;2023-11-19T08:04:51;5.10;;;2.20;;
59607;SDS011;45426;44.726;10.390;2023-11-19T08:07:20;5.85;;;1.83;;
59607;SDS011;45426;44.726;10.390;2023-11-19T08:09:47;3.70;;;1.83;;
59607;SDS011;45426;44.726;10.390;2023-11-19T08:12:12;4.28;;;2.00;;
59607;SDS011;45426;44.726;10.390;2023-11-19T08:14:40;6.43;;;1.90;;
59607;SDS011;45426;44.726;10.390;2023-11-19T08:17:06;6.03;;;1.90;;
59607;SDS011;45426;44.726;10.390;2023-11-19T08:19:32;5.53;;;1.80;;
59607;SDS011;45426;44.726;10.390;2023-11-19T08:21:57;8.90;;;2.78;;
59607;SDS011;45426;44.726;10.390;2023-11-19T08:24:23;7.75;;;2.30;;
59607;SDS011;45426;44.726;10.390;2023-11-19T08:26:48;8.63;;;2.47;;
59607;SDS011;45426;44.726;10.390;2023-11-19T08:29:14;5.57;;;2.58;;
59607;SDS011;45426;44.726;10.390;2023-11-19T08:31:39;8.32;;;2.72;;
59607;SDS011;45426;44.726;10.390;2023-11-19T08:34:05;5.97;;;2.38;;
59607;SDS011;45426;44.726;10.390;2023-11-19T08:36:33;5.55;;;2.50;;
59607;SDS011;45426;44.726;10.390;2023-11-19T08:38:59;5.05;;;2.50;;
59607;SDS011;45426;44.726;10.390;2023-11-19T08:41:24;7.20;;;4.47;;
59607;SDS011;45426;44.726;10.390;2023-11-19T08:43:50;9.75;;;6.53;;
59607;SDS011;45426;44.726;10.390;2023-11-19T08:46:16;6.85;;;2.97;;
59607;SDS011;45426;44.726;10.390;2023-11-19T08:48:42;7.15;;;3.13;;
59607;SDS011;45426;44.726;10.390;2023-11-19T08:51:07;6.60;;;3.85;;
59607;SDS011;45426;44.726;10.390;2023-11-19T08:53:33;7.43;;;3.72;;
59607;SDS011;45426;44.726;10.390;2023-11-19T08:55:58;14.05;;;6.13;;
59607;SDS011;45426;44.726;10.390;2023-11-19T08:58:29;14.35;;;7.53;;
59607;SDS011;45426;44.726;10.390;2023-11-19T09:00:55;17.33;;;7.70;;
59607;SDS011;45426;44.726;10.390;2023-11-19T09:03:21;13.48;;;5.72;;
59607;SDS011;45426;44.726;10.390;2023-11-19T09:05:46;13.18;;;6.50;;
59607;SDS011;45426;44.726;10.390;2023-11-19T09:08:12;12.75;;;5.63;;
59607;SDS011;45426;44.726;10.390;2023-11-19T09:10:37;13.25;;;5.78;;
59607;SDS011;45426;44.726;10.390;2023-11-19T09:13:03;13.82;;;6.20;;
59607;SDS011;45426;44.726;10.390;2023-11-19T09:15:29;13.00;;;5.90;;
59607;SDS011;45426;44.726;10.390;2023-11-19T09:17:54;11.52;;;5.13;;
59607;SDS011;45426;44.726;10.390;2023-11-19T09:20:20;8.23;;;4.35;;
59607;SDS011;45426;44.726;10.390;2023-11-19T09:22:45;11.15;;;5.88;;
59607;SDS011;45426;44.726;10.390;2023-11-19T09:25:11;10.20;;;4.75;;
59607;SDS011;45426;44.726;10.390;2023-11-19T09:27:36;11.43;;;5.40;;
59607;SDS011;45426;44.726;10.390;2023-11-19T09:30:02;11.15;;;6.38;;
59607;SDS011;45426;44.726;10.390;2023-11-19T09:32:29;13.27;;;6.47;;
59607;SDS011;45426;44.726;10.390;2023-11-19T09:34:54;11.15;;;5.82;;
59607;SDS011;45426;44.726;10.390;2023-11-19T09:37:20;11.55;;;6.07;;
59607;SDS011;45426;44.726;10.390;2023-11-19T09:39:45;13.25;;;7.57;;
59607;SDS011;45426;44.726;10.390;2023-11-19T09:42:11;12.60;;;6.50;;
59607;SDS011;45426;44.726;10.390;2023-11-19T09:44:40;12.70;;;6.25;;
59607;SDS011;45426;44.726;10.390;2023-11-19T09:47:07;11.10;;;6.70;;
59607;SDS011;45426;44.726;10.390;2023-11-19T09:49:34;12.60;;;6.60;;
59607;SDS011;45426;44.726;10.390;2023-11-19T09:52:01;13.00;;;7.20;;
59607;SDS011;45426;44.726;10.390;2023-11-19T09:54:27;14.40;;;7.25;;
59607;SDS011;45426;44.726;10.390;2023-11-19T09:56:53;14.13;;;7.25;;
59607;SDS011;45426;44.726;10.390;2023-11-19T09:59:24;13.02;;;6.47;;
59607;SDS011;45426;44.726;10.390;2023-11-19T10:01:50;11.32;;;6.15;;
59607;SDS011;45426;44.726;10.390;2023-11-19T10:04:16;13.55;;;6.22;;
59607;SDS011;45426;44.726;10.390;2023-11-19T10:06:44;11.25;;;5.90;;
59607;SDS011;45426;44.726;10.390;2023-11-19T10:09:09;11.85;;;6.50;;
59607;SDS011;45426;44.726;10.390;2023-11-19T10:11:37;11.45;;;6.47;;
59607;SDS011;45426;44.726;10.390;2023-11-19T10:14:02;11.95;;;6.53;;
59607;SDS011;45426;44.726;10.390;2023-11-19T10:16:28;14.55;;;7.03;;
59607;SDS011;45426;44.726;10.390;2023-11-19T10:18:57;13.60;;;6.57;;
59607;SDS011;45426;44.726;10.390;2023-11-19T10:21:23;12.23;;;6.55;;
59607;SDS011;45426;44.726;10.390;2023-11-19T10:23:53;12.93;;;6.72;;
59607;SDS011;45426;44.726;10.390;2023-11-19T10:26:21;12.13;;;6.30;;
59607;SDS011;45426;44.726;10.390;2023-11-19T10:28:47;13.00;;;6.63;;
59607;SDS011;45426;44.726;10.390;2023-11-19T10:31:17;11.15;;;6.25;;
59607;SDS011;45426;44.726;10.390;2023-11-19T10:33:44;12.25;;;6.70;;
59607;SDS011;45426;44.726;10.390;2023-11-19T10:36:10;12.48;;;7.13;;
59607;SDS011;45426;44.726;10.390;2023-11-19T10:38:37;10.80;;;6.20;;
59607;SDS011;45426;44.726;10.390;2023-11-19T10:41:03;12.65;;;6.43;;
59607;SDS011;45426;44.726;10.390;2023-11-19T10:43:31;14.40;;;6.80;;
59607;SDS011;45426;44.726;10.390;2023-11-19T10:46:12;11.88;;;6.40;;
59607;SDS011;45426;44.726;10.390;2023-11-19T10:48:39;11.38;;;6.32;;
59607;SDS011;45426;44.726;10.390;2023-11-19T10:51:06;14.02;;;6.35;;
59607;SDS011;45426;44.726;10.390;2023-11-19T10:53:36;11.80;;;6.22;;
59607;SDS011;45426;44.726;10.390;2023-11-19T10:56:04;13.02;;;6.70;;
59607;SDS011;45426;44.726;10.390;2023-11-19T10:58:34;16.35;;;7.03;;
59607;SDS011;45426;44.726;10.390;2023-11-19T11:01:03;13.73;;;6.20;;
59607;SDS011;45426;44.726;10.390;2023-11-19T11:03:39;12.13;;;6.35;;
59607;SDS011;45426;44.726;10.390;2023-11-19T11:06:05;10.85;;;5.75;;
59607;SDS011;45426;44.726;10.390;2023-11-19T11:08:31;14.82;;;6.68;;
59607;SDS011;45426;44.726;10.390;2023-11-19T11:11:01;12.93;;;6.50;;
59607;SDS011;45426;44.726;10.390;2023-11-19T11:13:27;12.40;;;6.18;;
59607;SDS011;45426;44.726;10.390;2023-11-19T11:15:54;11.85;;;6.22;;
59607;SDS011;45426;44.726;10.390;2023-11-19T11:18:23;13.02;;;6.28;;
59607;SDS011;45426;44.726;10.390;2023-11-19T11:20:50;11.98;;;6.03;;
59607;SDS011;45426;44.726;10.390;2023-11-19T11:28:56;12.77;;;6.40;;
59607;SDS011;45426;44.726;10.390;2023-11-19T11:34:23;12.10;;;5.82;;
59607;SDS011;45426;44.726;10.390;2023-11-19T11:37:06;14.32;;;5.30;;
59607;SDS011;45426;44.726;10.390;2023-11-19T11:39:43;12.55;;;5.65;;
59607;SDS011;45426;44.726;10.390;2023-11-19T11:44:57;13.05;;;5.60;;
59607;SDS011;45426;44.726;10.390;2023-11-19T11:47:59;11.52;;;5.32;;
59607;SDS011;45426;44.726;10.390;2023-11-19T11:50:21;11.13;;;5.43;;
59607;SDS011;45426;44.726;10.390;2023-11-19T11:55:26;10.80;;;5.28;;
59607;SDS011;45426;44.726;10.390;2023-11-19T11:57:52;10.73;;;4.80;;
59607;SDS011;45426;44.726;10.390;2023-11-19T12:00:31;11.45;;;4.75;;
59607;SDS011;45426;44.726;10.390;2023-11-19T12:03:00;9.90;;;4.68;;
59607;SDS011;45426;44.726;10.390;2023-11-19T12:05:27;10.63;;;4.47;;
59607;SDS011;45426;44.726;10.390;2023-11-19T12:08:05;9.98;;;4.50;;
59607;SDS011;45426;44.726;10.390;2023-11-19T12:10:32;11.32;;;4.38;;
59607;SDS011;45426;44.726;10.390;2023-11-19T12:13:04;10.80;;;4.47;;
59607;SDS011;45426;44.726;10.390;2023-11-19T12:15:32;12.07;;;4.80;;
59607;SDS011;45426;44.726;10.390;2023-11-19T12:17:57;10.77;;;4.95;;
59607;SDS011;45426;44.726;10.390;2023-11-19T12:20:24;10.25;;;4.22;;
59607;SDS011;45426;44.726;10.390;2023-11-19T12:22:51;9.35;;;4.45;;
59607;SDS011;45426;44.726;10.390;2023-11-19T12:25:18;11.85;;;5.22;;
59607;SDS011;45426;44.726;10.390;2023-11-19T12:27:49;9.73;;;4.55;;
59607;SDS011;45426;44.726;10.390;2023-11-19T12:30:25;12.15;;;4.50;;
59607;SDS011;45426;44.726;10.390;2023-11-19T12:32:51;10.35;;;4.80;;
59607;SDS011;45426;44.726;10.390;2023-11-19T12:35:21;13.13;;;4.43;;
59607;SDS011;45426;44.726;10.390;2023-11-19T12:37:49;10.85;;;4.18;;
59607;SDS011;45426;44.726;10.390;2023-11-19T12:40:16;8.88;;;4.18;;
59607;SDS011;45426;44.726;10.390;2023-11-19T12:42:49;9.48;;;4.45;;
59607;SDS011;45426;44.726;10.390;2023-11-19T12:45:16;10.07;;;4.47;;
59607;SDS011;45426;44.726;10.390;2023-11-19T12:47:42;10.43;;;4.20;;
59607;SDS011;45426;44.726;10.390;2023-11-19T12:50:09;12.88;;;4.13;;
59607;SDS011;45426;44.726;10.390;2023-11-19T12:52:36;10.15;;;3.70;;
59607;SDS011;45426;44.726;10.390;2023-11-19T12:55:03;11.15;;;4.50;;
59607;SDS011;45426;44.726;10.390;2023-11-19T12:57:40;11.32;;;4.38;;
59607;SDS011;45426;44.726;10.390;2023-11-19T13:00:06;10.40;;;4.13;;
59607;SDS011;45426;44.726;10.390;2023-11-19T13:05:31;11.25;;;4.00;;
59607;SDS011;45426;44.726;10.390;2023-11-19T13:08:03;8.65;;;3.83;;
59607;SDS011;45426;44.726;10.390;2023-11-19T13:10:31;9.63;;;3.38;;
59607;SDS011;45426;44.726;10.390;2023-11-19T13:13:16;8.43;;;3.63;;
59607;SDS011;45426;44.726;10.390;2023-11-19T13:15:41;7.53;;;3.25;;
59607;SDS011;45426;44.726;10.390;2023-11-19T13:18:08;6.30;;;2.90;;
59607;SDS011;45426;44.726;10.390;2023-11-19T13:20:33;10.35;;;3.20;;
59607;SDS011;45426;44.726;10.390;2023-11-19T13:23:02;9.43;;;3.13;;
59607;SDS011;45426;44.726;10.390;2023-11-19T13:25:30;9.13;;;3.33;;
59607;SDS011;45426;44.726;10.390;2023-11-19T13:27:57;7.03;;;3.20;;
59607;SDS011;45426;44.726;10.390;2023-11-19T13:30:22;8.55;;;3.75;;
59607;SDS011;45426;44.726;10.390;2023-11-19T13:32:49;7.07;;;3.50;;
59607;SDS011;45426;44.726;10.390;2023-11-19T13:35:15;7.50;;;3.60;;
59607;SDS011;45426;44.726;10.390;2023-11-19T13:37:42;8.05;;;4.07;;
59607;SDS011;45426;44.726;10.390;2023-11-19T13:40:08;8.48;;;4.07;;
59607;SDS011;45426;44.726;10.390;2023-11-19T13:42:39;8.75;;;4.07;;
59607;SDS011;45426;44.726;10.390;2023-11-19T13:45:14;11.07;;;4.35;;
59607;SDS011;45426;44.726;10.390;2023-11-19T13:47:40;10.43;;;4.68;;
59607;SDS011;45426;44.726;10.390;2023-11-19T13:50:13;9.23;;;4.55;;
59607;SDS011;45426;44.726;10.390;2023-11-19T13:52:39;10.18;;;5.45;;
59607;SDS011;45426;44.726;10.390;2023-11-19T13:55:09;10.43;;;5.45;;
59607;SDS011;45426;44.726;10.390;2023-11-19T13:57:36;9.50;;;4.50;;
59607;SDS011;45426;44.726;10.390;2023-11-19T14:00:02;9.55;;;4.13;;
59607;SDS011;45426;44.726;10.390;2023-11-19T14:02:32;10.93;;;4.95;;
59607;SDS011;45426;44.726;10.390;2023-11-19T14:05:01;11.20;;;4.45;;
59607;SDS011;45426;44.726;10.390;2023-11-19T14:07:27;10.73;;;4.05;;
59607;SDS011;45426;44.726;10.390;2023-11-19T14:09:53;9.25;;;4.07;;
59607;SDS011;45426;44.726;10.390;2023-11-19T14:12:19;9.25;;;4.28;;
59607;SDS011;45426;44.726;10.390;2023-11-19T14:14:44;9.48;;;4.30;;
59607;SDS011;45426;44.726;10.390;2023-11-19T14:17:10;11.75;;;4.70;;
59607;SDS011;45426;44.726;10.390;2023-11-19T14:19:36;10.65;;;4.18;;
59607;SDS011;45426;44.726;10.390;2023-11-19T14:22:01;8.85;;;4.40;;
59607;SDS011;45426;44.726;10.390;2023-11-19T14:24:27;9.77;;;4.20;;
59607;SDS011;45426;44.726;10.390;2023-11-19T14:26:53;8.55;;;4.43;;
59607;SDS011;45426;44.726;10.390;2023-11-19T14:29:18;10.38;;;4.68;;
59607;SDS011;45426;44.726;10.390;2023-11-19T14:31:44;9.77;;;4.43;;
59607;SDS011;45426;44.726;10.390;2023-11-19T14:34:09;9.68;;;4.38;;
59607;SDS011;45426;44.726;10.390;2023-11-19T14:36:34;9.20;;;4.15;;
59607;SDS011;45426;44.726;10.390;2023-11-19T14:39:00;9.50;;;4.15;;
59607;SDS011;45426;44.726;10.390;2023-11-19T14:41:26;7.68;;;3.55;;
59607;SDS011;45426;44.726;10.390;2023-11-19T14:43:51;8.80;;;3.70;;
59607;SDS011;45426;44.726;10.390;2023-11-19T14:46:17;10.63;;;4.63;;